createdAt,value
2018-07-15T00:01:04.722Z,28.40
2018-07-15T00:03:36.485Z,28.80
2018-07-15T00:06:08.272Z,29.80
2018-07-15T00:08:39.982Z,25.80
2018-07-15T00:11:12.640Z,28.20
2018-07-15T00:13:44.233Z,25.60
2018-07-15T00:16:15.945Z,23.40
2018-07-15T00:18:47.640Z,26.60
2018-07-15T00:21:19.513Z,25.40
2018-07-15T00:23:51.110Z,26.60
2018-07-15T00:26:23.248Z,23.60
2018-07-15T00:28:55.115Z,29.40
2018-07-15T00:31:27.512Z,27.40
2018-07-15T00:33:59.167Z,32.80
2018-07-15T00:36:31.008Z,31.40
2018-07-15T00:39:02.689Z,32.40
2018-07-15T00:41:34.525Z,27.60
2018-07-15T00:44:06.452Z,31.40
2018-07-15T00:46:38.314Z,33.20
2018-07-15T00:49:09.896Z,33.80
2018-07-15T00:51:41.745Z,31.00
2018-07-15T00:54:13.447Z,30.60
2018-07-15T00:56:45.340Z,32.80
2018-07-15T00:59:16.891Z,29.20
2018-07-15T01:01:48.635Z,29.40
2018-07-15T01:04:20.069Z,32.80
2018-07-15T01:06:51.910Z,28.20
2018-07-15T01:09:23.764Z,26.80
2018-07-15T01:11:55.861Z,28.80
2018-07-15T01:14:27.594Z,28.80
2018-07-15T01:16:59.634Z,34.80
2018-07-15T01:19:31.689Z,32.40
2018-07-15T01:22:03.295Z,30.20
2018-07-15T01:24:34.736Z,32.60
2018-07-15T01:27:06.720Z,30.60
2018-07-15T01:29:38.498Z,34.60
2018-07-15T01:32:10.699Z,31.00
2018-07-15T01:34:42.426Z,35.00
2018-07-15T01:37:14.239Z,32.40
2018-07-15T01:39:45.818Z,27.40
2018-07-15T01:42:17.642Z,31.60
2018-07-15T01:44:49.728Z,29.60
2018-07-15T01:47:21.054Z,30.20
2018-07-15T01:49:52.697Z,31.80
2018-07-15T01:52:24.610Z,36.80
2018-07-15T01:54:56.053Z,44.40
2018-07-15T01:57:28.075Z,40.40
2018-07-15T01:59:59.805Z,36.80
2018-07-15T02:02:31.808Z,42.80
2018-07-15T02:05:03.324Z,52.80
2018-07-15T02:07:35.331Z,50.80
2018-07-15T02:10:06.786Z,51.60
2018-07-15T02:12:38.595Z,50.20
2018-07-15T02:15:10.175Z,45.20
2018-07-15T02:17:41.957Z,47.60
2018-07-15T02:20:13.596Z,43.60
2018-07-15T02:22:45.375Z,49.20
2018-07-15T02:25:16.852Z,53.20
2018-07-15T02:27:48.155Z,51.60
2018-07-15T02:30:19.855Z,58.00
2018-07-15T02:32:52.276Z,58.80
2018-07-15T02:35:23.981Z,59.80
2018-07-15T02:37:55.826Z,57.40
2018-07-15T02:40:27.404Z,54.60
2018-07-15T02:42:58.877Z,60.20
2018-07-15T02:45:30.633Z,64.80
2018-07-15T02:48:03.155Z,67.00
2018-07-15T02:50:34.994Z,69.00
2018-07-15T02:53:06.784Z,71.20
2018-07-15T02:55:38.343Z,62.40
2018-07-15T02:58:10.049Z,65.00
2018-07-15T03:00:41.834Z,55.00
2018-07-15T03:03:13.534Z,44.80
2018-07-15T03:05:45.247Z,44.20
2018-07-15T03:08:17.081Z,49.00
2018-07-15T03:10:48.697Z,48.80
2018-07-15T03:13:20.489Z,48.20
2018-07-15T03:15:52.297Z,49.80
2018-07-15T03:18:23.933Z,51.60
2018-07-15T03:20:55.778Z,51.40
2018-07-15T03:23:27.720Z,49.00
2018-07-15T03:25:59.508Z,48.20
2018-07-15T03:28:31.132Z,50.80
2018-07-15T03:31:02.858Z,52.40
2018-07-15T03:33:35.626Z,56.00
2018-07-15T03:36:07.357Z,55.60
2018-07-15T03:38:39.194Z,52.60
2018-07-15T03:41:10.839Z,56.40
2018-07-15T03:43:42.716Z,55.20
2018-07-15T03:46:14.165Z,56.80
2018-07-15T03:48:46.077Z,54.00
2018-07-15T03:51:17.407Z,60.60
2018-07-15T03:53:49.168Z,60.00
2018-07-15T03:56:21.152Z,57.80
2018-07-15T03:58:52.655Z,58.80
2018-07-15T04:01:24.330Z,59.80
2018-07-15T04:03:55.917Z,70.20
2018-07-15T04:06:27.515Z,69.00
2018-07-15T04:08:59.302Z,65.40
2018-07-15T04:11:31.360Z,76.40
2018-07-15T04:14:02.946Z,70.40
2018-07-15T04:16:34.897Z,75.80
2018-07-15T04:19:07.476Z,74.00
2018-07-15T04:21:39.170Z,61.00
2018-07-15T04:24:11.035Z,64.40
2018-07-15T04:26:42.498Z,68.40
2018-07-15T04:29:14.397Z,70.80
2018-07-15T04:31:45.959Z,74.00
2018-07-15T04:34:17.763Z,76.80
2018-07-15T04:36:49.615Z,77.80
2018-07-15T04:39:21.607Z,75.60
2018-07-15T04:41:53.299Z,79.00
2018-07-15T04:44:25.086Z,80.80
2018-07-15T04:46:56.897Z,79.20
2018-07-15T04:49:28.756Z,76.60
2018-07-15T04:52:00.393Z,65.60
2018-07-15T04:54:32.064Z,64.00
2018-07-15T04:57:03.938Z,63.40
2018-07-15T04:59:35.717Z,59.60
2018-07-15T05:02:07.448Z,62.80
2018-07-15T05:04:39.338Z,58.20
2018-07-15T05:07:11.294Z,66.00
2018-07-15T05:09:43.447Z,70.00
2018-07-15T05:12:15.106Z,67.40
2018-07-15T05:14:46.925Z,63.80
2018-07-15T05:17:18.657Z,68.40
2018-07-15T05:19:50.651Z,68.60
2018-07-15T05:22:22.132Z,69.60
2018-07-15T05:24:53.987Z,63.80
2018-07-15T05:27:25.695Z,70.00
2018-07-15T05:29:57.453Z,67.00
2018-07-15T05:32:29.130Z,70.40
2018-07-15T05:35:01.453Z,66.20
2018-07-15T05:37:33.315Z,69.80
2018-07-15T05:40:05.206Z,70.80
2018-07-15T05:42:36.895Z,63.80
2018-07-15T05:45:08.405Z,65.40
2018-07-15T05:47:40.091Z,68.00
2018-07-15T05:50:11.689Z,63.80
2018-07-15T05:52:43.384Z,66.20
2018-07-15T05:55:15.271Z,69.20
2018-07-15T05:57:46.578Z,70.40
2018-07-15T06:00:18.365Z,64.20
2018-07-15T06:02:50.012Z,65.40
2018-07-15T06:05:21.867Z,68.60
2018-07-15T06:07:53.511Z,65.80
2018-07-15T06:10:25.567Z,65.20
2018-07-15T06:12:57.238Z,65.80
2018-07-15T06:15:29.145Z,73.00
2018-07-15T06:18:00.713Z,66.60
2018-07-15T06:20:32.567Z,64.60
2018-07-15T06:23:04.300Z,67.40
2018-07-15T06:25:36.093Z,67.60
2018-07-15T06:28:07.738Z,70.00
2018-07-15T06:30:39.631Z,71.80
2018-07-15T06:33:11.340Z,69.80
2018-07-15T06:35:44.749Z,67.60
2018-07-15T06:38:16.364Z,71.20
2018-07-15T06:40:47.912Z,70.00
2018-07-15T06:43:19.547Z,73.60
2018-07-15T06:45:51.366Z,68.80
2018-07-15T06:48:22.997Z,59.60
2018-07-15T06:50:54.790Z,46.00
2018-07-15T06:53:26.541Z,57.80
2018-07-15T06:55:58.532Z,58.00
2018-07-15T06:58:30.160Z,64.80
2018-07-15T07:01:02.009Z,62.20
2018-07-15T07:03:33.834Z,61.20
2018-07-15T07:06:05.458Z,61.20
2018-07-15T07:08:37.136Z,66.20
2018-07-15T07:11:09.131Z,65.80
2018-07-15T07:13:40.885Z,67.00
2018-07-15T07:16:12.739Z,71.00
2018-07-15T07:18:44.465Z,68.80
2018-07-15T07:21:16.303Z,72.60
2018-07-15T07:23:48.125Z,69.00
2018-07-15T07:26:21.121Z,68.00
2018-07-15T07:28:52.724Z,70.80
2018-07-15T07:31:26.529Z,64.80
2018-07-15T07:33:59.317Z,67.60
2018-07-15T07:36:31.851Z,64.00
2018-07-15T07:39:06.326Z,61.00
2018-07-15T07:41:38.244Z,61.20
2018-07-15T07:44:10.221Z,57.40
2018-07-15T07:46:42.292Z,54.80
2018-07-15T07:49:14.430Z,54.40
2018-07-15T07:51:47.923Z,54.40
2018-07-15T07:54:21.101Z,52.40
2018-07-15T07:56:53.051Z,48.80
2018-07-15T07:59:24.813Z,51.20
2018-07-15T08:01:57.944Z,49.20
2018-07-15T08:04:31.046Z,47.80
2018-07-15T08:07:03.367Z,49.20
2018-07-15T08:09:35.044Z,51.40
2018-07-15T08:12:07.160Z,57.00
2018-07-15T08:14:38.995Z,53.80
2018-07-15T08:17:10.819Z,51.00
2018-07-15T08:19:42.787Z,51.40
2018-07-15T08:22:14.897Z,49.20
2018-07-15T08:24:46.499Z,50.60
2018-07-15T08:27:18.637Z,56.20
2018-07-15T08:29:59.462Z,65.80
2018-07-15T08:32:31.626Z,65.20
2018-07-15T08:35:03.306Z,64.40
2018-07-15T08:37:35.108Z,65.00
2018-07-15T08:40:06.920Z,66.20
2018-07-15T08:42:38.905Z,64.60
2018-07-15T08:45:10.852Z,62.60
2018-07-15T08:47:42.943Z,60.60
2018-07-15T08:50:14.860Z,63.00
2018-07-15T08:52:46.790Z,60.00
2018-07-15T08:55:19.368Z,63.40
2018-07-15T08:57:51.452Z,62.80
2018-07-15T09:00:22.911Z,61.40
2018-07-15T09:02:54.835Z,63.60
2018-07-15T09:05:26.266Z,56.80
2018-07-15T09:07:58.152Z,58.00
2018-07-15T09:10:30.037Z,57.60
2018-07-15T09:13:01.958Z,60.20
2018-07-15T09:15:33.694Z,63.60
2018-07-15T09:18:05.695Z,62.80
2018-07-15T09:20:37.545Z,60.80
2018-07-15T09:23:09.656Z,60.80
2018-07-15T09:25:41.712Z,61.60
2018-07-15T09:28:14.672Z,62.40
2018-07-15T09:30:46.637Z,59.20
2018-07-15T09:33:18.454Z,56.60
2018-07-15T09:35:50.072Z,62.00
2018-07-15T09:38:21.948Z,60.40
2018-07-15T09:40:54.034Z,58.40
2018-07-15T09:43:25.697Z,58.40
2018-07-15T09:45:57.615Z,57.80
2018-07-15T09:48:29.419Z,59.40
2018-07-15T09:51:01.164Z,59.40
2018-07-15T09:53:33.004Z,62.40
2018-07-15T09:56:04.753Z,53.40
2018-07-15T09:58:36.656Z,58.60
2018-07-15T10:01:08.152Z,56.80
2018-07-15T10:03:40.007Z,60.00
2018-07-15T10:06:11.875Z,61.40
2018-07-15T10:08:43.697Z,59.40
2018-07-15T10:11:15.775Z,61.80
2018-07-15T10:13:47.469Z,58.00
2018-07-15T10:16:19.148Z,64.20
2018-07-15T10:18:50.935Z,64.00
2018-07-15T10:21:22.578Z,63.20
2018-07-15T10:23:54.387Z,61.40
2018-07-15T10:26:25.794Z,64.60
2018-07-15T10:28:57.556Z,59.20
2018-07-15T10:31:29.179Z,59.20
2018-07-15T10:34:01.161Z,62.00
2018-07-15T10:36:32.709Z,59.40
2018-07-15T10:39:04.738Z,60.60
2018-07-15T10:41:36.582Z,61.60
2018-07-15T10:44:08.654Z,66.00
2018-07-15T10:46:40.340Z,56.80
2018-07-15T10:49:12.143Z,64.20
2018-07-15T10:51:43.666Z,61.00
2018-07-15T10:54:15.433Z,59.00
2018-07-15T10:56:47.177Z,59.00
2018-07-15T10:59:19.066Z,57.80
2018-07-15T11:01:50.845Z,57.80
2018-07-15T11:04:22.806Z,54.60
2018-07-15T11:06:54.875Z,55.40
2018-07-15T11:09:26.647Z,56.40
2018-07-15T11:11:58.316Z,57.60
2018-07-15T11:14:30.087Z,56.00
2018-07-15T11:17:01.829Z,56.20
2018-07-15T11:19:34.148Z,52.80
2018-07-15T11:22:05.867Z,56.60
2018-07-15T11:24:37.735Z,53.40
2018-07-15T11:27:09.441Z,52.20
2018-07-15T11:29:41.336Z,51.20
2018-07-15T11:32:14.555Z,49.20
2018-07-15T11:34:46.223Z,49.20
2018-07-15T11:37:17.734Z,53.40
2018-07-15T11:39:49.560Z,52.20
2018-07-15T11:42:21.194Z,49.20
2018-07-15T11:44:53.067Z,49.40
2018-07-15T11:47:25.158Z,53.00
2018-07-15T11:49:57.058Z,53.80
2018-07-15T11:52:28.672Z,50.40
2018-07-15T11:55:00.561Z,53.40
2018-07-15T11:57:32.210Z,47.80
2018-07-15T12:00:05.630Z,45.00
2018-07-15T12:02:37.546Z,46.60
2018-07-15T12:05:09.665Z,38.00
2018-07-15T12:07:41.317Z,37.20
2018-07-15T12:10:13.163Z,36.60
2018-07-15T12:12:45.529Z,37.40
2018-07-15T12:15:17.307Z,33.20
2018-07-15T12:17:49.117Z,36.00
2018-07-15T12:20:20.985Z,35.80
2018-07-15T12:22:52.839Z,31.80
2018-07-15T12:25:25.185Z,36.80
2018-07-15T12:27:56.881Z,35.80
2018-07-15T12:30:28.753Z,31.40
2018-07-15T12:33:00.694Z,33.40
2018-07-15T12:35:32.341Z,41.80
2018-07-15T12:38:03.920Z,42.00
2018-07-15T12:40:35.785Z,48.80
2018-07-15T12:43:07.224Z,42.40
2018-07-15T12:45:39.184Z,45.80
2018-07-15T12:48:11.004Z,44.00
2018-07-15T12:50:42.792Z,51.00
2018-07-15T12:53:14.160Z,51.40
2018-07-15T12:55:45.907Z,58.00
2018-07-15T12:58:17.493Z,61.20
2018-07-15T13:00:51.637Z,52.80
2018-07-15T13:03:24.177Z,57.40
2018-07-15T13:05:56.091Z,64.20
2018-07-15T13:08:27.783Z,54.80
2018-07-15T13:10:59.286Z,46.80
2018-07-15T13:13:31.214Z,52.20
2018-07-15T13:16:02.940Z,48.40
2018-07-15T13:18:34.718Z,48.40
2018-07-15T13:21:06.790Z,47.80
2018-07-15T13:23:38.263Z,45.80
2018-07-15T13:26:10.059Z,48.60
2018-07-15T13:28:41.718Z,44.40
2018-07-15T13:31:13.107Z,39.20
2018-07-15T13:33:44.327Z,44.80
2018-07-15T13:36:15.772Z,39.40
2018-07-15T13:38:47.634Z,45.00
2018-07-15T13:41:19.363Z,45.60
2018-07-15T13:43:51.044Z,44.60
2018-07-15T13:46:22.914Z,39.20
2018-07-15T13:48:54.602Z,47.00
2018-07-15T13:51:26.355Z,45.00
2018-07-15T13:53:57.872Z,38.60
2018-07-15T13:56:29.708Z,48.20
2018-07-15T13:59:01.429Z,47.40
2018-07-15T14:01:32.938Z,48.20
2018-07-15T14:04:04.772Z,41.40
2018-07-15T14:06:36.522Z,43.40
2018-07-15T14:09:09.051Z,47.80
2018-07-15T14:11:40.608Z,46.20
2018-07-15T14:14:12.350Z,50.20
2018-07-15T14:16:44.297Z,50.00
2018-07-15T14:19:16.042Z,49.80
2018-07-15T14:21:47.918Z,49.80
2018-07-15T14:24:19.839Z,50.20
2018-07-15T14:26:51.714Z,53.80
2018-07-15T14:29:23.491Z,53.60
2018-07-15T14:31:55.509Z,62.20
2018-07-15T14:34:27.168Z,57.00
2018-07-15T14:36:59.056Z,56.00
2018-07-15T14:39:41.028Z,57.80
2018-07-15T14:42:12.795Z,54.20
2018-07-15T14:44:44.500Z,54.80
2018-07-15T14:47:16.380Z,58.60
2018-07-15T14:49:47.715Z,49.00
2018-07-15T14:52:19.550Z,47.20
2018-07-15T14:54:51.195Z,48.00
2018-07-15T14:57:22.967Z,45.60
2018-07-15T14:59:54.532Z,50.00
2018-07-15T15:02:26.256Z,48.60
2018-07-15T15:04:58.162Z,50.60
2018-07-15T15:07:30.266Z,48.60
2018-07-15T15:10:02.059Z,48.40
2018-07-15T15:12:33.933Z,51.40
2018-07-15T15:15:05.587Z,51.40
2018-07-15T15:17:37.665Z,49.20
2018-07-15T15:20:09.235Z,48.80
2018-07-15T15:22:40.936Z,55.20
2018-07-15T15:25:12.536Z,56.80
2018-07-15T15:27:44.241Z,62.20
2018-07-15T15:30:15.942Z,55.00
2018-07-15T15:32:47.653Z,63.20
2018-07-15T15:35:19.408Z,58.60
2018-07-15T15:37:51.292Z,56.60
2018-07-15T15:40:22.722Z,62.60
2018-07-15T15:42:54.518Z,50.20
2018-07-15T15:45:26.056Z,48.80
2018-07-15T15:47:57.948Z,48.00
2018-07-15T15:50:29.747Z,53.00
2018-07-15T15:53:01.613Z,56.00
2018-07-15T15:55:33.724Z,51.40
2018-07-15T15:58:05.393Z,51.00
2018-07-15T16:00:37.097Z,48.80
2018-07-15T16:03:08.987Z,51.20
2018-07-15T16:05:40.689Z,49.00
2018-07-15T16:08:12.533Z,53.00
2018-07-15T16:10:44.606Z,53.60
2018-07-15T16:13:16.430Z,51.40
2018-07-15T16:15:48.206Z,56.20
2018-07-15T16:18:20.001Z,54.20
2018-07-15T16:20:51.780Z,52.80
2018-07-15T16:23:24.094Z,50.40
2018-07-15T16:25:55.885Z,41.20
2018-07-15T16:28:27.619Z,42.80
2018-07-15T16:30:59.425Z,45.80
2018-07-15T16:33:31.375Z,43.20
2018-07-15T16:36:02.948Z,46.60
2018-07-15T16:38:34.803Z,44.40
2018-07-15T16:41:06.242Z,46.40
2018-07-15T16:43:38.135Z,45.80
2018-07-15T16:46:09.573Z,42.60
2018-07-15T16:48:41.413Z,43.40
2018-07-15T16:51:12.798Z,41.40
2018-07-15T16:53:44.663Z,40.80
2018-07-15T16:56:16.707Z,42.40
2018-07-15T16:58:48.717Z,34.60
2018-07-15T17:01:21.113Z,31.40
2018-07-15T17:03:53.027Z,38.60
2018-07-15T17:06:25.018Z,37.40
2018-07-15T17:08:56.723Z,35.00
2018-07-15T17:11:28.385Z,33.40
2018-07-15T17:14:00.294Z,33.60
2018-07-15T17:16:32.104Z,31.40
2018-07-15T17:19:03.677Z,28.00
2018-07-15T17:21:35.234Z,23.80
2018-07-15T17:24:07.876Z,26.60
2018-07-15T17:26:39.512Z,30.20
2018-07-15T17:29:11.257Z,22.20
2018-07-15T17:31:43.229Z,26.00
2018-07-15T17:34:15.058Z,23.20
2018-07-15T17:36:46.511Z,21.20
2018-07-15T17:39:18.707Z,23.20
2018-07-15T17:41:50.832Z,18.60
2018-07-15T17:44:22.684Z,21.00
2018-07-15T17:46:54.328Z,21.80
2018-07-15T17:49:26.160Z,20.80
2018-07-15T17:51:57.881Z,21.40
2018-07-15T17:54:29.762Z,20.60
2018-07-15T17:57:01.235Z,20.00
2018-07-15T17:59:33.125Z,19.40
2018-07-15T18:02:05.011Z,19.00
2018-07-15T18:04:36.919Z,18.80
2018-07-15T18:07:08.716Z,16.40
2018-07-15T18:09:40.378Z,18.00
2018-07-15T18:12:12.151Z,15.20
2018-07-15T18:14:44.133Z,16.80
2018-07-15T18:17:15.824Z,15.80
2018-07-15T18:19:47.703Z,13.00
2018-07-15T18:22:19.281Z,14.40
2018-07-15T18:24:52.583Z,16.80
2018-07-15T18:27:24.423Z,15.60
2018-07-15T18:29:56.259Z,14.60
2018-07-15T18:32:28.521Z,15.00
2018-07-15T18:35:00.342Z,14.00
2018-07-15T18:37:31.938Z,16.20
2018-07-15T18:40:03.686Z,14.00
2018-07-15T18:42:35.305Z,11.20
2018-07-15T18:45:07.255Z,15.00
2018-07-15T18:53:32.814Z,16.20
2018-07-15T18:56:04.466Z,17.40
2018-07-15T18:58:36.195Z,17.80
2018-07-15T19:01:08.148Z,16.60
2018-07-15T19:03:39.908Z,15.80
2018-07-15T19:06:11.529Z,15.40
2018-07-15T19:08:43.504Z,16.60
2018-07-15T19:11:15.312Z,13.80
2018-07-15T19:13:47.128Z,16.60
2018-07-15T19:16:19.685Z,17.80
2018-07-15T19:18:51.534Z,15.60
2018-07-15T19:21:23.305Z,16.80
2018-07-15T19:23:55.052Z,18.20
2018-07-15T19:26:27.073Z,18.20
2018-07-15T19:28:59.825Z,16.40
2018-07-15T19:31:31.654Z,18.80
2018-07-15T19:34:03.649Z,18.60
2018-07-15T19:36:35.375Z,18.20
2018-07-15T19:39:07.913Z,20.40
2018-07-15T19:41:39.623Z,19.00
2018-07-15T19:44:11.601Z,25.80
2018-07-15T19:46:43.395Z,21.60
2018-07-15T19:49:15.004Z,25.20
2018-07-15T19:51:47.181Z,22.00
2018-07-15T19:54:19.332Z,25.60
2018-07-15T19:56:51.005Z,24.00
2018-07-15T19:59:22.915Z,22.60
2018-07-15T20:01:54.859Z,28.60
2018-07-15T20:04:26.588Z,29.20
2018-07-15T20:06:58.294Z,30.20
2018-07-15T20:09:30.166Z,28.00
2018-07-15T20:12:01.947Z,29.00
2018-07-15T20:14:33.919Z,27.40
2018-07-15T20:17:05.491Z,27.40
2018-07-15T20:19:37.373Z,28.80
2018-07-15T20:22:09.276Z,31.60
2018-07-15T20:24:41.025Z,23.80
2018-07-15T20:27:12.993Z,27.80
2018-07-15T20:29:44.793Z,27.20
2018-07-15T20:32:16.270Z,31.00
2018-07-15T20:34:48.086Z,30.20
2018-07-15T20:37:19.572Z,31.60
2018-07-15T20:39:51.471Z,36.40
2018-07-15T20:42:23.286Z,31.60
2018-07-15T20:44:55.173Z,32.80
2018-07-15T20:47:26.728Z,32.00
2018-07-15T20:49:58.641Z,31.20
2018-07-15T20:52:30.315Z,43.00
2018-07-15T20:55:02.411Z,32.20
2018-07-15T20:57:33.964Z,33.60
2018-07-15T21:00:06.073Z,38.00
2018-07-15T21:02:37.734Z,36.00
2018-07-15T21:05:09.576Z,34.60
2018-07-15T21:07:41.253Z,34.00
2018-07-15T21:10:13.170Z,36.40
2018-07-15T21:12:44.720Z,31.20
2018-07-15T21:15:16.645Z,40.60
2018-07-15T21:17:48.421Z,34.20
2018-07-15T21:20:20.070Z,36.00
2018-07-15T21:22:51.824Z,35.40
2018-07-15T21:25:23.717Z,36.80
2018-07-15T21:27:55.546Z,39.40
2018-07-15T21:30:27.308Z,36.60
2018-07-15T21:32:59.240Z,36.00
2018-07-15T21:35:31.139Z,35.20
2018-07-15T21:38:02.749Z,39.60
2018-07-15T21:40:34.629Z,37.20
2018-07-15T21:43:06.246Z,39.40
2018-07-15T21:45:38.030Z,39.60
2018-07-15T21:48:09.712Z,36.20
2018-07-15T21:50:41.223Z,36.60
2018-07-15T21:53:12.849Z,37.60
2018-07-15T21:55:44.657Z,38.00
2018-07-15T21:58:16.432Z,36.20
2018-07-15T22:00:48.214Z,32.80
2018-07-15T22:03:19.892Z,32.40
2018-07-15T22:05:51.914Z,38.40
2018-07-15T22:08:33.099Z,39.00
2018-07-15T22:11:05.194Z,41.00
2018-07-15T22:13:36.729Z,40.00
2018-07-15T22:16:08.399Z,36.00
2018-07-15T22:18:40.018Z,33.40
2018-07-15T22:21:11.748Z,37.80
2018-07-15T22:23:43.575Z,37.40
2018-07-15T22:26:15.388Z,40.60
2018-07-15T22:28:47.161Z,37.60
2018-07-15T22:31:18.944Z,35.20
2018-07-15T22:33:50.655Z,38.00
2018-07-15T22:36:22.585Z,36.60
2018-07-15T22:38:54.331Z,39.20
2018-07-15T22:41:26.069Z,36.80
2018-07-15T22:43:57.872Z,44.80
2018-07-15T22:46:29.715Z,39.40
2018-07-15T22:49:01.758Z,43.60
2018-07-15T22:51:33.574Z,39.80
2018-07-15T22:54:05.273Z,39.20
2018-07-15T22:56:37.086Z,42.40
2018-07-15T22:59:08.699Z,41.60
2018-07-15T23:01:40.621Z,45.80
2018-07-15T23:04:12.354Z,41.00
2018-07-15T23:06:44.069Z,41.20
2018-07-15T23:09:15.827Z,42.20
2018-07-15T23:11:47.625Z,36.80
2018-07-15T23:14:19.212Z,41.60
2018-07-15T23:16:51.331Z,40.40
2018-07-15T23:19:22.760Z,39.00
2018-07-15T23:21:54.435Z,41.00
2018-07-15T23:24:26.135Z,41.00
2018-07-15T23:26:57.564Z,43.80
2018-07-15T23:29:29.239Z,42.20
2018-07-15T23:32:01.131Z,37.60
2018-07-15T23:34:32.749Z,38.20
2018-07-15T23:37:04.399Z,40.20
2018-07-15T23:39:36.121Z,35.60
2018-07-15T23:42:07.920Z,42.00
2018-07-15T23:44:39.500Z,39.80
2018-07-15T23:47:10.962Z,39.60
2018-07-15T23:49:42.714Z,37.40
2018-07-15T23:52:14.784Z,37.40
2018-07-15T23:54:46.435Z,38.80
2018-07-15T23:57:18.259Z,31.00
2018-07-15T23:59:49.952Z,38.80
